sensor_id;sensor_type;location;lat;lon;timestamp;P1;durP1;ratioP1;P2;durP2;ratioP2
37701;SDS011;23548;51.196;6.838;2023-03-04T00:00:57;80.75;;;35.92;;
37701;SDS011;23548;51.196;6.838;2023-03-04T00:03:22;80.65;;;36.03;;
37701;SDS011;23548;51.196;6.838;2023-03-04T00:05:48;82.97;;;36.38;;
37701;SDS011;23548;51.196;6.838;2023-03-04T00:08:14;82.45;;;34.47;;
37701;SDS011;23548;51.196;6.838;2023-03-04T00:10:40;77.68;;;35.13;;
37701;SDS011;23548;51.196;6.838;2023-03-04T00:13:06;84.38;;;36.08;;
37701;SDS011;23548;51.196;6.838;2023-03-04T00:15:31;78.22;;;34.92;;
37701;SDS011;23548;51.196;6.838;2023-03-04T00:17:57;83.93;;;36.70;;
37701;SDS011;23548;51.196;6.838;2023-03-04T00:20:23;78.10;;;35.00;;
37701;SDS011;23548;51.196;6.838;2023-03-04T00:22:48;91.45;;;36.83;;
37701;SDS011;23548;51.196;6.838;2023-03-04T00:25:14;77.60;;;36.15;;
37701;SDS011;23548;51.196;6.838;2023-03-04T00:27:40;87.18;;;37.22;;
37701;SDS011;23548;51.196;6.838;2023-03-04T00:30:06;85.55;;;35.70;;
37701;SDS011;23548;51.196;6.838;2023-03-04T00:32:32;87.65;;;37.25;;
37701;SDS011;23548;51.196;6.838;2023-03-04T00:34:58;79.57;;;36.78;;
37701;SDS011;23548;51.196;6.838;2023-03-04T00:37:24;86.88;;;36.70;;
37701;SDS011;23548;51.196;6.838;2023-03-04T00:39:49;83.68;;;39.03;;
37701;SDS011;23548;51.196;6.838;2023-03-04T00:42:15;84.68;;;36.88;;
37701;SDS011;23548;51.196;6.838;2023-03-04T00:44:41;86.68;;;36.35;;
37701;SDS011;23548;51.196;6.838;2023-03-04T00:47:07;81.85;;;35.78;;
37701;SDS011;23548;51.196;6.838;2023-03-04T00:49:33;80.05;;;35.75;;
37701;SDS011;23548;51.196;6.838;2023-03-04T00:51:59;76.95;;;34.35;;
37701;SDS011;23548;51.196;6.838;2023-03-04T00:54:24;82.15;;;36.80;;
37701;SDS011;23548;51.196;6.838;2023-03-04T00:56:51;85.70;;;37.38;;
37701;SDS011;23548;51.196;6.838;2023-03-04T00:59:16;79.18;;;34.53;;
37701;SDS011;23548;51.196;6.838;2023-03-04T01:01:42;80.50;;;36.03;;
37701;SDS011;23548;51.196;6.838;2023-03-04T01:04:08;85.65;;;35.80;;
37701;SDS011;23548;51.196;6.838;2023-03-04T01:06:34;86.35;;;37.42;;
37701;SDS011;23548;51.196;6.838;2023-03-04T01:09:00;85.28;;;34.83;;
37701;SDS011;23548;51.196;6.838;2023-03-04T01:11:26;82.82;;;35.22;;
37701;SDS011;23548;51.196;6.838;2023-03-04T01:13:52;82.22;;;36.47;;
37701;SDS011;23548;51.196;6.838;2023-03-04T01:16:17;49.03;;;19.88;;
37701;SDS011;23548;51.196;6.838;2023-03-04T01:18:43;42.90;;;17.30;;
37701;SDS011;23548;51.196;6.838;2023-03-04T01:21:11;56.83;;;23.48;;
37701;SDS011;23548;51.196;6.838;2023-03-04T01:23:36;78.88;;;35.13;;
37701;SDS011;23548;51.196;6.838;2023-03-04T01:26:02;78.43;;;35.22;;
37701;SDS011;23548;51.196;6.838;2023-03-04T01:28:28;81.13;;;36.90;;
37701;SDS011;23548;51.196;6.838;2023-03-04T01:30:54;81.75;;;37.70;;
37701;SDS011;23548;51.196;6.838;2023-03-04T01:33:19;75.65;;;32.72;;
37701;SDS011;23548;51.196;6.838;2023-03-04T01:35:45;75.22;;;33.08;;
37701;SDS011;23548;51.196;6.838;2023-03-04T01:38:11;79.15;;;36.25;;
37701;SDS011;23548;51.196;6.838;2023-03-04T01:40:37;74.20;;;33.17;;
37701;SDS011;23548;51.196;6.838;2023-03-04T01:43:03;57.58;;;23.15;;
37701;SDS011;23548;51.196;6.838;2023-03-04T01:45:29;64.90;;;29.50;;
37701;SDS011;23548;51.196;6.838;2023-03-04T01:47:56;71.53;;;31.80;;
37701;SDS011;23548;51.196;6.838;2023-03-04T01:53:00;47.00;;;20.98;;
37701;SDS011;23548;51.196;6.838;2023-03-04T01:55:27;48.28;;;18.58;;
37701;SDS011;23548;51.196;6.838;2023-03-04T01:57:54;65.45;;;29.10;;
37701;SDS011;23548;51.196;6.838;2023-03-04T02:03:00;36.50;;;15.23;;
37701;SDS011;23548;51.196;6.838;2023-03-04T02:05:35;31.23;;;12.48;;
37701;SDS011;23548;51.196;6.838;2023-03-04T02:08:03;30.80;;;10.32;;
37701;SDS011;23548;51.196;6.838;2023-03-04T02:10:30;24.02;;;9.20;;
37701;SDS011;23548;51.196;6.838;2023-03-04T02:12:57;25.67;;;7.07;;
37701;SDS011;23548;51.196;6.838;2023-03-04T02:15:24;25.40;;;8.20;;
37701;SDS011;23548;51.196;6.838;2023-03-04T02:17:50;21.38;;;6.95;;
37701;SDS011;23548;51.196;6.838;2023-03-04T02:20:24;22.98;;;6.93;;
37701;SDS011;23548;51.196;6.838;2023-03-04T02:23:44;29.20;;;7.20;;
37701;SDS011;23548;51.196;6.838;2023-03-04T02:26:20;19.42;;;6.38;;
37701;SDS011;23548;51.196;6.838;2023-03-04T02:28:48;25.40;;;7.20;;
37701;SDS011;23548;51.196;6.838;2023-03-04T02:33:59;24.77;;;7.57;;
37701;SDS011;23548;51.196;6.838;2023-03-04T02:41:52;21.98;;;7.40;;
37701;SDS011;23548;51.196;6.838;2023-03-04T02:46:45;23.33;;;7.38;;
37701;SDS011;23548;51.196;6.838;2023-03-04T02:49:11;23.80;;;6.57;;
37701;SDS011;23548;51.196;6.838;2023-03-04T02:51:37;19.08;;;6.00;;
37701;SDS011;23548;51.196;6.838;2023-03-04T02:54:03;18.27;;;5.32;;
37701;SDS011;23548;51.196;6.838;2023-03-04T02:56:29;17.40;;;5.70;;
37701;SDS011;23548;51.196;6.838;2023-03-04T02:58:55;26.65;;;5.13;;
37701;SDS011;23548;51.196;6.838;2023-03-04T03:01:21;19.55;;;5.57;;
37701;SDS011;23548;51.196;6.838;2023-03-04T03:03:47;17.63;;;5.68;;
37701;SDS011;23548;51.196;6.838;2023-03-04T03:06:12;26.83;;;5.60;;
37701;SDS011;23548;51.196;6.838;2023-03-04T03:08:38;24.52;;;6.22;;
37701;SDS011;23548;51.196;6.838;2023-03-04T03:11:04;20.65;;;5.35;;
37701;SDS011;23548;51.196;6.838;2023-03-04T03:13:29;23.92;;;6.47;;
37701;SDS011;23548;51.196;6.838;2023-03-04T03:15:55;19.33;;;6.10;;
37701;SDS011;23548;51.196;6.838;2023-03-04T03:18:21;19.70;;;7.32;;
37701;SDS011;23548;51.196;6.838;2023-03-04T03:20:46;22.17;;;6.60;;
37701;SDS011;23548;51.196;6.838;2023-03-04T03:23:12;27.45;;;6.35;;
37701;SDS011;23548;51.196;6.838;2023-03-04T03:25:38;25.90;;;6.28;;
37701;SDS011;23548;51.196;6.838;2023-03-04T03:28:04;23.15;;;6.05;;
37701;SDS011;23548;51.196;6.838;2023-03-04T03:30:30;30.17;;;6.32;;
37701;SDS011;23548;51.196;6.838;2023-03-04T03:32:56;25.83;;;7.10;;
37701;SDS011;23548;51.196;6.838;2023-03-04T03:35:22;27.45;;;7.32;;
37701;SDS011;23548;51.196;6.838;2023-03-04T03:37:47;31.40;;;9.02;;
37701;SDS011;23548;51.196;6.838;2023-03-04T03:40:13;34.53;;;8.90;;
37701;SDS011;23548;51.196;6.838;2023-03-04T03:42:39;35.67;;;10.30;;
37701;SDS011;23548;51.196;6.838;2023-03-04T03:45:05;30.50;;;9.45;;
37701;SDS011;23548;51.196;6.838;2023-03-04T03:47:31;32.72;;;8.30;;
37701;SDS011;23548;51.196;6.838;2023-03-04T03:49:57;30.83;;;8.13;;
37701;SDS011;23548;51.196;6.838;2023-03-04T03:52:22;32.83;;;8.98;;
37701;SDS011;23548;51.196;6.838;2023-03-04T03:54:48;37.05;;;13.73;;
37701;SDS011;23548;51.196;6.838;2023-03-04T03:57:14;35.88;;;14.65;;
37701;SDS011;23548;51.196;6.838;2023-03-04T03:59:39;50.90;;;16.58;;
37701;SDS011;23548;51.196;6.838;2023-03-04T04:02:05;43.95;;;15.88;;
37701;SDS011;23548;51.196;6.838;2023-03-04T04:04:31;43.13;;;15.98;;
37701;SDS011;23548;51.196;6.838;2023-03-04T04:06:57;45.20;;;18.58;;
37701;SDS011;23548;51.196;6.838;2023-03-04T04:09:23;52.05;;;21.33;;
37701;SDS011;23548;51.196;6.838;2023-03-04T04:11:49;50.75;;;21.70;;
37701;SDS011;23548;51.196;6.838;2023-03-04T04:14:15;54.17;;;22.48;;
37701;SDS011;23548;51.196;6.838;2023-03-04T04:16:40;54.60;;;21.25;;
37701;SDS011;23548;51.196;6.838;2023-03-04T04:19:06;42.65;;;17.27;;
37701;SDS011;23548;51.196;6.838;2023-03-04T04:21:34;42.22;;;17.27;;
37701;SDS011;23548;51.196;6.838;2023-03-04T04:24:00;36.42;;;15.02;;
37701;SDS011;23548;51.196;6.838;2023-03-04T04:26:26;38.47;;;15.73;;
37701;SDS011;23548;51.196;6.838;2023-03-04T04:28:51;32.17;;;13.23;;
37701;SDS011;23548;51.196;6.838;2023-03-04T04:31:17;35.35;;;12.95;;
37701;SDS011;23548;51.196;6.838;2023-03-04T04:33:43;34.33;;;11.23;;
37701;SDS011;23548;51.196;6.838;2023-03-04T04:36:11;30.80;;;10.38;;
37701;SDS011;23548;51.196;6.838;2023-03-04T04:38:39;25.30;;;9.10;;
37701;SDS011;23548;51.196;6.838;2023-03-04T04:41:05;28.45;;;8.90;;
37701;SDS011;23548;51.196;6.838;2023-03-04T04:43:37;34.50;;;9.02;;
37701;SDS011;23548;51.196;6.838;2023-03-04T04:46:02;26.67;;;8.27;;
37701;SDS011;23548;51.196;6.838;2023-03-04T04:48:28;17.58;;;6.68;;
37701;SDS011;23548;51.196;6.838;2023-03-04T04:50:54;23.48;;;6.80;;
37701;SDS011;23548;51.196;6.838;2023-03-04T04:53:20;24.17;;;7.03;;
37701;SDS011;23548;51.196;6.838;2023-03-04T04:55:46;27.67;;;6.68;;
37701;SDS011;23548;51.196;6.838;2023-03-04T04:58:12;24.75;;;6.55;;
37701;SDS011;23548;51.196;6.838;2023-03-04T05:00:37;22.50;;;7.60;;
37701;SDS011;23548;51.196;6.838;2023-03-04T05:03:03;23.77;;;8.10;;
37701;SDS011;23548;51.196;6.838;2023-03-04T05:05:29;25.08;;;7.07;;
37701;SDS011;23548;51.196;6.838;2023-03-04T05:07:54;24.33;;;7.00;;
37701;SDS011;23548;51.196;6.838;2023-03-04T05:10:20;19.95;;;6.63;;
37701;SDS011;23548;51.196;6.838;2023-03-04T05:12:46;25.35;;;7.45;;
37701;SDS011;23548;51.196;6.838;2023-03-04T05:15:11;21.92;;;6.15;;
37701;SDS011;23548;51.196;6.838;2023-03-04T05:17:37;28.02;;;6.68;;
37701;SDS011;23548;51.196;6.838;2023-03-04T05:20:03;18.10;;;7.50;;
37701;SDS011;23548;51.196;6.838;2023-03-04T05:22:31;26.23;;;6.68;;
37701;SDS011;23548;51.196;6.838;2023-03-04T05:24:57;22.45;;;8.73;;
37701;SDS011;23548;51.196;6.838;2023-03-04T05:27:22;27.40;;;9.35;;
37701;SDS011;23548;51.196;6.838;2023-03-04T05:29:48;27.75;;;9.52;;
37701;SDS011;23548;51.196;6.838;2023-03-04T05:32:14;25.15;;;9.60;;
37701;SDS011;23548;51.196;6.838;2023-03-04T05:34:39;29.20;;;7.50;;
37701;SDS011;23548;51.196;6.838;2023-03-04T05:37:05;28.00;;;7.05;;
37701;SDS011;23548;51.196;6.838;2023-03-04T05:39:31;26.85;;;7.22;;
37701;SDS011;23548;51.196;6.838;2023-03-04T05:41:56;15.55;;;5.25;;
37701;SDS011;23548;51.196;6.838;2023-03-04T05:44:22;19.70;;;5.65;;
37701;SDS011;23548;51.196;6.838;2023-03-04T05:46:48;18.48;;;5.82;;
37701;SDS011;23548;51.196;6.838;2023-03-04T05:49:14;23.88;;;6.63;;
37701;SDS011;23548;51.196;6.838;2023-03-04T05:51:39;23.35;;;7.38;;
37701;SDS011;23548;51.196;6.838;2023-03-04T05:54:05;23.25;;;6.22;;
37701;SDS011;23548;51.196;6.838;2023-03-04T05:56:31;19.45;;;7.43;;
37701;SDS011;23548;51.196;6.838;2023-03-04T05:58:57;20.80;;;7.10;;
37701;SDS011;23548;51.196;6.838;2023-03-04T06:01:24;22.33;;;7.50;;
37701;SDS011;23548;51.196;6.838;2023-03-04T06:03:50;14.60;;;5.47;;
37701;SDS011;23548;51.196;6.838;2023-03-04T06:06:16;16.33;;;5.70;;
37701;SDS011;23548;51.196;6.838;2023-03-04T06:08:41;17.88;;;5.45;;
37701;SDS011;23548;51.196;6.838;2023-03-04T06:11:07;24.52;;;11.45;;
37701;SDS011;23548;51.196;6.838;2023-03-04T06:13:33;29.23;;;11.07;;
37701;SDS011;23548;51.196;6.838;2023-03-04T06:16:00;31.55;;;10.63;;
37701;SDS011;23548;51.196;6.838;2023-03-04T06:18:26;24.35;;;8.43;;
37701;SDS011;23548;51.196;6.838;2023-03-04T06:20:56;16.25;;;5.57;;
37701;SDS011;23548;51.196;6.838;2023-03-04T06:23:24;15.35;;;4.70;;
37701;SDS011;23548;51.196;6.838;2023-03-04T06:25:51;20.02;;;4.82;;
37701;SDS011;23548;51.196;6.838;2023-03-04T06:28:21;24.55;;;6.18;;
37701;SDS011;23548;51.196;6.838;2023-03-04T06:30:47;15.35;;;5.80;;
37701;SDS011;23548;51.196;6.838;2023-03-04T06:33:15;20.67;;;5.15;;
37701;SDS011;23548;51.196;6.838;2023-03-04T06:35:41;19.25;;;6.05;;
37701;SDS011;23548;51.196;6.838;2023-03-04T06:38:07;23.77;;;6.65;;
37701;SDS011;23548;51.196;6.838;2023-03-04T06:40:33;16.95;;;6.20;;
37701;SDS011;23548;51.196;6.838;2023-03-04T06:42:58;13.77;;;5.40;;
37701;SDS011;23548;51.196;6.838;2023-03-04T06:45:24;19.83;;;5.35;;
37701;SDS011;23548;51.196;6.838;2023-03-04T06:47:50;23.27;;;5.80;;
37701;SDS011;23548;51.196;6.838;2023-03-04T06:50:16;15.45;;;4.90;;
37701;SDS011;23548;51.196;6.838;2023-03-04T06:52:42;15.23;;;5.28;;
37701;SDS011;23548;51.196;6.838;2023-03-04T06:55:07;20.17;;;6.50;;
37701;SDS011;23548;51.196;6.838;2023-03-04T06:57:34;15.65;;;5.53;;
37701;SDS011;23548;51.196;6.838;2023-03-04T06:59:59;19.40;;;5.95;;
37701;SDS011;23548;51.196;6.838;2023-03-04T07:02:27;19.88;;;5.63;;
37701;SDS011;23548;51.196;6.838;2023-03-04T07:04:53;15.98;;;5.18;;
37701;SDS011;23548;51.196;6.838;2023-03-04T07:07:18;25.90;;;5.90;;
37701;SDS011;23548;51.196;6.838;2023-03-04T07:09:44;22.40;;;5.70;;
37701;SDS011;23548;51.196;6.838;2023-03-04T07:12:10;15.82;;;5.35;;
37701;SDS011;23548;51.196;6.838;2023-03-04T07:14:36;18.52;;;5.47;;
37701;SDS011;23548;51.196;6.838;2023-03-04T07:17:01;13.43;;;4.90;;
37701;SDS011;23548;51.196;6.838;2023-03-04T07:19:36;18.35;;;4.35;;
37701;SDS011;23548;51.196;6.838;2023-03-04T07:22:02;18.80;;;5.03;;
37701;SDS011;23548;51.196;6.838;2023-03-04T07:24:27;18.60;;;4.75;;
37701;SDS011;23548;51.196;6.838;2023-03-04T07:26:53;18.40;;;4.60;;
37701;SDS011;23548;51.196;6.838;2023-03-04T07:29:19;13.98;;;4.40;;
37701;SDS011;23548;51.196;6.838;2023-03-04T07:31:47;11.95;;;4.68;;
37701;SDS011;23548;51.196;6.838;2023-03-04T07:34:13;14.05;;;4.30;;
37701;SDS011;23548;51.196;6.838;2023-03-04T07:36:39;16.05;;;4.10;;
37701;SDS011;23548;51.196;6.838;2023-03-04T07:39:06;12.40;;;4.45;;
37701;SDS011;23548;51.196;6.838;2023-03-04T07:41:32;16.17;;;4.03;;
37701;SDS011;23548;51.196;6.838;2023-03-04T07:44:00;16.77;;;4.75;;
37701;SDS011;23548;51.196;6.838;2023-03-04T07:46:27;16.10;;;4.53;;
37701;SDS011;23548;51.196;6.838;2023-03-04T07:48:53;19.52;;;4.72;;
37701;SDS011;23548;51.196;6.838;2023-03-04T07:51:20;13.18;;;4.03;;
37701;SDS011;23548;51.196;6.838;2023-03-04T07:53:48;23.80;;;4.82;;
37701;SDS011;23548;51.196;6.838;2023-03-04T07:56:20;20.90;;;4.32;;
37701;SDS011;23548;51.196;6.838;2023-03-04T07:58:48;18.20;;;3.88;;
37701;SDS011;23548;51.196;6.838;2023-03-04T08:01:15;13.38;;;3.70;;
37701;SDS011;23548;51.196;6.838;2023-03-04T08:03:43;16.27;;;4.55;;
37701;SDS011;23548;51.196;6.838;2023-03-04T08:06:09;13.68;;;4.55;;
37701;SDS011;23548;51.196;6.838;2023-03-04T08:08:37;13.73;;;3.58;;
37701;SDS011;23548;51.196;6.838;2023-03-04T08:11:06;17.77;;;4.70;;
37701;SDS011;23548;51.196;6.838;2023-03-04T08:13:33;16.13;;;4.18;;
37701;SDS011;23548;51.196;6.838;2023-03-04T08:16:00;15.55;;;3.80;;
37701;SDS011;23548;51.196;6.838;2023-03-04T08:18:26;16.15;;;3.97;;
37701;SDS011;23548;51.196;6.838;2023-03-04T08:20:52;18.70;;;3.60;;
37701;SDS011;23548;51.196;6.838;2023-03-04T08:23:18;15.35;;;3.60;;
37701;SDS011;23548;51.196;6.838;2023-03-04T08:25:47;11.38;;;3.22;;
37701;SDS011;23548;51.196;6.838;2023-03-04T08:28:16;15.60;;;3.92;;
37701;SDS011;23548;51.196;6.838;2023-03-04T08:30:42;13.18;;;4.30;;
37701;SDS011;23548;51.196;6.838;2023-03-04T08:33:08;15.80;;;3.78;;
37701;SDS011;23548;51.196;6.838;2023-03-04T08:35:38;10.57;;;3.30;;
37701;SDS011;23548;51.196;6.838;2023-03-04T08:38:04;13.00;;;3.53;;
37701;SDS011;23548;51.196;6.838;2023-03-04T08:40:30;13.60;;;3.92;;
37701;SDS011;23548;51.196;6.838;2023-03-04T08:42:56;10.82;;;3.17;;
37701;SDS011;23548;51.196;6.838;2023-03-04T08:45:21;16.35;;;3.33;;
37701;SDS011;23548;51.196;6.838;2023-03-04T08:47:47;9.57;;;2.83;;
37701;SDS011;23548;51.196;6.838;2023-03-04T08:50:14;9.77;;;3.42;;
37701;SDS011;23548;51.196;6.838;2023-03-04T08:52:51;12.13;;;2.65;;
37701;SDS011;23548;51.196;6.838;2023-03-04T08:55:17;8.73;;;2.45;;
37701;SDS011;23548;51.196;6.838;2023-03-04T08:57:44;15.65;;;3.15;;
37701;SDS011;23548;51.196;6.838;2023-03-04T09:00:10;15.73;;;3.33;;
37701;SDS011;23548;51.196;6.838;2023-03-04T09:02:36;7.85;;;2.83;;
37701;SDS011;23548;51.196;6.838;2023-03-04T09:05:02;17.20;;;4.50;;
37701;SDS011;23548;51.196;6.838;2023-03-04T09:07:29;8.60;;;4.20;;
37701;SDS011;23548;51.196;6.838;2023-03-04T09:09:55;8.98;;;3.25;;
37701;SDS011;23548;51.196;6.838;2023-03-04T09:12:21;9.63;;;2.42;;
37701;SDS011;23548;51.196;6.838;2023-03-04T09:14:47;13.23;;;3.90;;
37701;SDS011;23548;51.196;6.838;2023-03-04T09:17:12;14.13;;;3.80;;
37701;SDS011;23548;51.196;6.838;2023-03-04T09:19:38;11.95;;;3.35;;
37701;SDS011;23548;51.196;6.838;2023-03-04T09:22:04;12.25;;;3.10;;
37701;SDS011;23548;51.196;6.838;2023-03-04T09:24:30;10.95;;;2.65;;
37701;SDS011;23548;51.196;6.838;2023-03-04T09:26:55;7.78;;;2.58;;
37701;SDS011;23548;51.196;6.838;2023-03-04T09:29:21;8.15;;;2.40;;
37701;SDS011;23548;51.196;6.838;2023-03-04T09:31:47;6.30;;;2.50;;
37701;SDS011;23548;51.196;6.838;2023-03-04T09:34:13;7.90;;;2.80;;
37701;SDS011;23548;51.196;6.838;2023-03-04T09:36:39;9.63;;;2.38;;
37701;SDS011;23548;51.196;6.838;2023-03-04T09:39:04;7.47;;;2.58;;
37701;SDS011;23548;51.196;6.838;2023-03-04T09:41:38;12.52;;;3.72;;
37701;SDS011;23548;51.196;6.838;2023-03-04T09:44:29;10.55;;;3.08;;
37701;SDS011;23548;51.196;6.838;2023-03-04T09:46:59;11.30;;;3.30;;
37701;SDS011;23548;51.196;6.838;2023-03-04T09:49:28;11.20;;;3.30;;
37701;SDS011;23548;51.196;6.838;2023-03-04T09:57:46;10.23;;;2.50;;
37701;SDS011;23548;51.196;6.838;2023-03-04T10:00:21;7.30;;;2.00;;
37701;SDS011;23548;51.196;6.838;2023-03-04T10:06:00;8.95;;;2.55;;
37701;SDS011;23548;51.196;6.838;2023-03-04T10:14:02;7.63;;;1.90;;
37701;SDS011;23548;51.196;6.838;2023-03-04T10:17:04;11.38;;;1.90;;
37701;SDS011;23548;51.196;6.838;2023-03-04T10:30:18;9.25;;;2.83;;
37701;SDS011;23548;51.196;6.838;2023-03-04T10:33:20;7.75;;;2.40;;
37701;SDS011;23548;51.196;6.838;2023-03-04T10:35:52;8.98;;;2.05;;
37701;SDS011;23548;51.196;6.838;2023-03-04T10:38:40;5.65;;;1.63;;
37701;SDS011;23548;51.196;6.838;2023-03-04T10:41:14;4.45;;;1.95;;
37701;SDS011;23548;51.196;6.838;2023-03-04T10:43:43;7.32;;;2.17;;
37701;SDS011;23548;51.196;6.838;2023-03-04T10:46:15;4.50;;;1.80;;
37701;SDS011;23548;51.196;6.838;2023-03-04T10:48:42;5.65;;;1.70;;
37701;SDS011;23548;51.196;6.838;2023-03-04T10:51:18;5.63;;;2.17;;
37701;SDS011;23548;51.196;6.838;2023-03-04T10:53:48;6.18;;;2.05;;
37701;SDS011;23548;51.196;6.838;2023-03-04T11:01:59;5.57;;;2.40;;
37701;SDS011;23548;51.196;6.838;2023-03-04T11:04:27;5.00;;;2.45;;
37701;SDS011;23548;51.196;6.838;2023-03-04T11:06:58;6.00;;;2.30;;
37701;SDS011;23548;51.196;6.838;2023-03-04T11:09:25;11.45;;;2.78;;
37701;SDS011;23548;51.196;6.838;2023-03-04T11:11:59;5.03;;;2.08;;
37701;SDS011;23548;51.196;6.838;2023-03-04T11:16:55;6.55;;;2.70;;
37701;SDS011;23548;51.196;6.838;2023-03-04T11:19:23;5.20;;;2.25;;
37701;SDS011;23548;51.196;6.838;2023-03-04T11:21:59;6.93;;;2.13;;
37701;SDS011;23548;51.196;6.838;2023-03-04T11:24:29;10.93;;;2.50;;
37701;SDS011;23548;51.196;6.838;2023-03-04T11:27:02;6.28;;;2.38;;
37701;SDS011;23548;51.196;6.838;2023-03-04T11:29:34;8.90;;;1.92;;
37701;SDS011;23548;51.196;6.838;2023-03-04T11:32:10;5.95;;;2.10;;
37701;SDS011;23548;51.196;6.838;2023-03-04T11:40:49;5.82;;;1.90;;
37701;SDS011;23548;51.196;6.838;2023-03-04T11:43:28;4.53;;;1.83;;
37701;SDS011;23548;51.196;6.838;2023-03-04T11:46:17;6.38;;;1.77;;
37701;SDS011;23548;51.196;6.838;2023-03-04T12:14:22;5.10;;;1.90;;
37701;SDS011;23548;51.196;6.838;2023-03-04T12:17:29;4.28;;;1.80;;
37701;SDS011;23548;51.196;6.838;2023-03-04T12:23:10;7.13;;;2.10;;
37701;SDS011;23548;51.196;6.838;2023-03-04T12:25:45;5.90;;;2.00;;
37701;SDS011;23548;51.196;6.838;2023-03-04T12:28:25;5.75;;;1.70;;
37701;SDS011;23548;51.196;6.838;2023-03-04T12:36:52;6.93;;;1.98;;
37701;SDS011;23548;51.196;6.838;2023-03-04T12:44:26;5.03;;;2.00;;
37701;SDS011;23548;51.196;6.838;2023-03-04T12:52:53;11.60;;;1.80;;
37701;SDS011;23548;51.196;6.838;2023-03-04T12:55:38;5.95;;;1.70;;
37701;SDS011;23548;51.196;6.838;2023-03-04T12:58:11;7.38;;;2.08;;
37701;SDS011;23548;51.196;6.838;2023-03-04T13:11:54;3.05;;;1.80;;
37701;SDS011;23548;51.196;6.838;2023-03-04T13:14:29;4.03;;;1.50;;
37701;SDS011;23548;51.196;6.838;2023-03-04T13:16:57;6.28;;;1.58;;
37701;SDS011;23548;51.196;6.838;2023-03-04T13:25:49;2.80;;;1.55;;
37701;SDS011;23548;51.196;6.838;2023-03-04T13:41:10;5.10;;;1.98;;
37701;SDS011;23548;51.196;6.838;2023-03-04T13:43:40;5.13;;;1.80;;
37701;SDS011;23548;51.196;6.838;2023-03-04T13:48:58;5.20;;;1.95;;
37701;SDS011;23548;51.196;6.838;2023-03-04T13:51:41;6.88;;;2.00;;
37701;SDS011;23548;51.196;6.838;2023-03-04T13:54:14;4.40;;;2.20;;
37701;SDS011;23548;51.196;6.838;2023-03-04T13:57:24;4.90;;;2.03;;
37701;SDS011;23548;51.196;6.838;2023-03-04T13:59:53;3.45;;;2.00;;
37701;SDS011;23548;51.196;6.838;2023-03-04T14:02:20;6.75;;;2.40;;
37701;SDS011;23548;51.196;6.838;2023-03-04T14:07:20;7.32;;;2.17;;
37701;SDS011;23548;51.196;6.838;2023-03-04T14:10:01;6.78;;;2.65;;
37701;SDS011;23548;51.196;6.838;2023-03-04T14:12:35;4.25;;;2.20;;
37701;SDS011;23548;51.196;6.838;2023-03-04T14:17:39;6.85;;;2.10;;
37701;SDS011;23548;51.196;6.838;2023-03-04T14:20:24;5.68;;;2.03;;
37701;SDS011;23548;51.196;6.838;2023-03-04T14:22:51;5.30;;;2.65;;
37701;SDS011;23548;51.196;6.838;2023-03-04T14:25:22;6.15;;;2.10;;
37701;SDS011;23548;51.196;6.838;2023-03-04T14:28:10;5.13;;;2.08;;
37701;SDS011;23548;51.196;6.838;2023-03-04T14:30:39;2.78;;;1.70;;
37701;SDS011;23548;51.196;6.838;2023-03-04T14:33:12;5.13;;;2.00;;
37701;SDS011;23548;51.196;6.838;2023-03-04T14:35:45;3.08;;;1.80;;
37701;SDS011;23548;51.196;6.838;2023-03-04T14:38:23;6.68;;;2.80;;
37701;SDS011;23548;51.196;6.838;2023-03-04T14:43:28;4.07;;;1.75;;
37701;SDS011;23548;51.196;6.838;2023-03-04T14:45:59;3.97;;;1.83;;
37701;SDS011;23548;51.196;6.838;2023-03-04T14:48:27;8.80;;;4.75;;
37701;SDS011;23548;51.196;6.838;2023-03-04T14:50:55;3.40;;;2.28;;
37701;SDS011;23548;51.196;6.838;2023-03-04T14:53:23;3.92;;;2.33;;
37701;SDS011;23548;51.196;6.838;2023-03-04T14:58:24;5.00;;;2.47;;
37701;SDS011;23548;51.196;6.838;2023-03-04T15:01:02;3.95;;;2.20;;
37701;SDS011;23548;51.196;6.838;2023-03-04T15:03:28;4.13;;;2.35;;
37701;SDS011;23548;51.196;6.838;2023-03-04T15:06:05;4.07;;;2.63;;
37701;SDS011;23548;51.196;6.838;2023-03-04T15:08:42;5.70;;;2.88;;
37701;SDS011;23548;51.196;6.838;2023-03-04T15:11:21;9.43;;;2.60;;
37701;SDS011;23548;51.196;6.838;2023-03-04T15:13:50;4.93;;;2.50;;
37701;SDS011;23548;51.196;6.838;2023-03-04T15:16:20;5.78;;;2.70;;
37701;SDS011;23548;51.196;6.838;2023-03-04T15:18:58;4.97;;;2.78;;
37701;SDS011;23548;51.196;6.838;2023-03-04T15:21:31;5.32;;;2.60;;
37701;SDS011;23548;51.196;6.838;2023-03-04T15:23:59;4.03;;;2.88;;
37701;SDS011;23548;51.196;6.838;2023-03-04T15:26:27;5.50;;;2.60;;
37701;SDS011;23548;51.196;6.838;2023-03-04T15:28:54;3.83;;;2.65;;
37701;SDS011;23548;51.196;6.838;2023-03-04T15:31:21;3.85;;;2.78;;
37701;SDS011;23548;51.196;6.838;2023-03-04T15:33:50;3.53;;;2.58;;
37701;SDS011;23548;51.196;6.838;2023-03-04T15:36:17;5.07;;;3.00;;
37701;SDS011;23548;51.196;6.838;2023-03-04T15:38:48;7.50;;;3.45;;
37701;SDS011;23548;51.196;6.838;2023-03-04T15:41:20;6.57;;;3.30;;
37701;SDS011;23548;51.196;6.838;2023-03-04T15:43:48;8.07;;;3.17;;
37701;SDS011;23548;51.196;6.838;2023-03-04T15:46:14;8.40;;;4.65;;
37701;SDS011;23548;51.196;6.838;2023-03-04T15:48:40;5.65;;;3.22;;
37701;SDS011;23548;51.196;6.838;2023-03-04T15:51:10;4.22;;;3.10;;
37701;SDS011;23548;51.196;6.838;2023-03-04T15:53:40;5.13;;;3.17;;
37701;SDS011;23548;51.196;6.838;2023-03-04T15:56:17;6.82;;;3.53;;
37701;SDS011;23548;51.196;6.838;2023-03-04T15:58:47;5.15;;;3.65;;
37701;SDS011;23548;51.196;6.838;2023-03-04T16:01:20;8.13;;;3.42;;
37701;SDS011;23548;51.196;6.838;2023-03-04T16:03:47;8.55;;;3.60;;
37701;SDS011;23548;51.196;6.838;2023-03-04T16:06:13;5.07;;;3.58;;
37701;SDS011;23548;51.196;6.838;2023-03-04T16:08:41;10.73;;;4.28;;
37701;SDS011;23548;51.196;6.838;2023-03-04T16:11:09;9.50;;;5.15;;
37701;SDS011;23548;51.196;6.838;2023-03-04T16:13:43;9.07;;;3.78;;
37701;SDS011;23548;51.196;6.838;2023-03-04T16:16:09;6.07;;;3.53;;
37701;SDS011;23548;51.196;6.838;2023-03-04T16:18:36;8.77;;;3.67;;
37701;SDS011;23548;51.196;6.838;2023-03-04T16:21:02;8.88;;;4.43;;
37701;SDS011;23548;51.196;6.838;2023-03-04T16:23:28;6.32;;;3.50;;
37701;SDS011;23548;51.196;6.838;2023-03-04T16:25:57;12.88;;;5.20;;
37701;SDS011;23548;51.196;6.838;2023-03-04T16:28:23;9.70;;;4.13;;
37701;SDS011;23548;51.196;6.838;2023-03-04T16:30:48;11.30;;;4.80;;
37701;SDS011;23548;51.196;6.838;2023-03-04T16:33:14;12.40;;;5.38;;
37701;SDS011;23548;51.196;6.838;2023-03-04T16:35:40;20.30;;;7.18;;
37701;SDS011;23548;51.196;6.838;2023-03-04T16:38:14;17.02;;;8.30;;
37701;SDS011;23548;51.196;6.838;2023-03-04T16:40:46;22.27;;;9.95;;
37701;SDS011;23548;51.196;6.838;2023-03-04T16:43:13;24.10;;;10.95;;
37701;SDS011;23548;51.196;6.838;2023-03-04T16:45:40;20.98;;;9.48;;
37701;SDS011;23548;51.196;6.838;2023-03-04T16:48:06;20.58;;;9.23;;
37701;SDS011;23548;51.196;6.838;2023-03-04T16:50:32;20.50;;;9.88;;
37701;SDS011;23548;51.196;6.838;2023-03-04T16:53:00;21.45;;;9.10;;
37701;SDS011;23548;51.196;6.838;2023-03-04T16:55:27;22.83;;;9.38;;
37701;SDS011;23548;51.196;6.838;2023-03-04T16:57:55;23.10;;;7.82;;
37701;SDS011;23548;51.196;6.838;2023-03-04T17:00:25;18.33;;;7.65;;
37701;SDS011;23548;51.196;6.838;2023-03-04T17:02:57;18.80;;;7.32;;
37701;SDS011;23548;51.196;6.838;2023-03-04T17:05:25;16.73;;;6.32;;
37701;SDS011;23548;51.196;6.838;2023-03-04T17:07:54;16.33;;;5.40;;